sensor_id;sensor_type;location;lat;lon;timestamp;P1;durP1;ratioP1;P2;durP2;ratioP2
10096;SDS011;5087;42.662;23.466;2022-12-07T00:00:11;0.00;;;0.00;;
10096;SDS011;5087;42.662;23.466;2022-12-07T00:02:43;0.40;;;0.40;;
10096;SDS011;5087;42.662;23.466;2022-12-07T00:05:10;3.60;;;1.07;;
10096;SDS011;5087;42.662;23.466;2022-12-07T00:07:37;0.30;;;0.30;;
10096;SDS011;5087;42.662;23.466;2022-12-07T00:10:06;0.00;;;0.00;;
10096;SDS011;5087;42.662;23.466;2022-12-07T00:12:33;0.30;;;0.30;;
10096;SDS011;5087;42.662;23.466;2022-12-07T00:15:01;0.10;;;0.10;;
10096;SDS011;5087;42.662;23.466;2022-12-07T00:17:29;0.00;;;0.00;;
10096;SDS011;5087;42.662;23.466;2022-12-07T00:19:57;1.10;;;1.10;;
10096;SDS011;5087;42.662;23.466;2022-12-07T00:22:24;0.13;;;0.13;;
10096;SDS011;5087;42.662;23.466;2022-12-07T00:24:51;0.00;;;0.00;;
10096;SDS011;5087;42.662;23.466;2022-12-07T00:27:18;0.00;;;0.00;;
10096;SDS011;5087;42.662;23.466;2022-12-07T00:29:45;0.00;;;0.00;;
10096;SDS011;5087;42.662;23.466;2022-12-07T00:32:13;0.00;;;0.00;;
10096;SDS011;5087;42.662;23.466;2022-12-07T00:34:42;0.00;;;0.00;;
10096;SDS011;5087;42.662;23.466;2022-12-07T00:37:09;0.17;;;0.17;;
10096;SDS011;5087;42.662;23.466;2022-12-07T00:39:38;0.67;;;0.30;;
10096;SDS011;5087;42.662;23.466;2022-12-07T00:42:05;0.00;;;0.00;;
10096;SDS011;5087;42.662;23.466;2022-12-07T00:44:32;0.37;;;0.37;;
10096;SDS011;5087;42.662;23.466;2022-12-07T00:47:00;0.00;;;0.00;;
10096;SDS011;5087;42.662;23.466;2022-12-07T00:49:27;0.00;;;0.00;;
10096;SDS011;5087;42.662;23.466;2022-12-07T00:51:55;0.00;;;0.00;;
10096;SDS011;5087;42.662;23.466;2022-12-07T00:54:22;0.27;;;0.27;;
10096;SDS011;5087;42.662;23.466;2022-12-07T00:56:49;0.00;;;0.00;;
10096;SDS011;5087;42.662;23.466;2022-12-07T00:59:16;0.00;;;0.00;;
10096;SDS011;5087;42.662;23.466;2022-12-07T01:01:44;0.00;;;0.00;;
10096;SDS011;5087;42.662;23.466;2022-12-07T01:04:11;0.00;;;0.00;;
10096;SDS011;5087;42.662;23.466;2022-12-07T01:06:38;0.00;;;0.00;;
10096;SDS011;5087;42.662;23.466;2022-12-07T01:09:07;0.00;;;0.00;;
10096;SDS011;5087;42.662;23.466;2022-12-07T01:11:35;0.00;;;0.00;;
10096;SDS011;5087;42.662;23.466;2022-12-07T01:14:02;0.00;;;0.00;;
10096;SDS011;5087;42.662;23.466;2022-12-07T01:16:31;0.97;;;0.23;;
10096;SDS011;5087;42.662;23.466;2022-12-07T01:18:59;0.00;;;0.00;;
10096;SDS011;5087;42.662;23.466;2022-12-07T01:21:28;0.00;;;0.00;;
10096;SDS011;5087;42.662;23.466;2022-12-07T01:24:00;0.13;;;0.13;;
10096;SDS011;5087;42.662;23.466;2022-12-07T01:26:28;0.00;;;0.00;;
10096;SDS011;5087;42.662;23.466;2022-12-07T01:28:56;0.00;;;0.00;;
10096;SDS011;5087;42.662;23.466;2022-12-07T01:31:25;0.10;;;0.10;;
10096;SDS011;5087;42.662;23.466;2022-12-07T01:33:55;0.10;;;0.10;;
10096;SDS011;5087;42.662;23.466;2022-12-07T01:36:24;1.03;;;0.20;;
10096;SDS011;5087;42.662;23.466;2022-12-07T01:38:56;0.10;;;0.10;;
10096;SDS011;5087;42.662;23.466;2022-12-07T01:41:24;2.20;;;2.00;;
10096;SDS011;5087;42.662;23.466;2022-12-07T01:44:11;0.00;;;0.00;;
10096;SDS011;5087;42.662;23.466;2022-12-07T01:46:41;0.00;;;0.00;;
10096;SDS011;5087;42.662;23.466;2022-12-07T01:49:10;0.10;;;0.10;;
10096;SDS011;5087;42.662;23.466;2022-12-07T01:51:42;0.00;;;0.00;;
10096;SDS011;5087;42.662;23.466;2022-12-07T01:54:13;0.10;;;0.10;;
10096;SDS011;5087;42.662;23.466;2022-12-07T01:56:43;0.10;;;0.10;;
10096;SDS011;5087;42.662;23.466;2022-12-07T01:59:18;0.10;;;0.10;;
10096;SDS011;5087;42.662;23.466;2022-12-07T02:01:48;0.10;;;0.10;;
10096;SDS011;5087;42.662;23.466;2022-12-07T02:04:15;0.57;;;0.57;;
10096;SDS011;5087;42.662;23.466;2022-12-07T02:06:42;0.00;;;0.00;;
10096;SDS011;5087;42.662;23.466;2022-12-07T02:09:11;0.00;;;0.00;;
10096;SDS011;5087;42.662;23.466;2022-12-07T02:11:42;0.73;;;0.73;;
10096;SDS011;5087;42.662;23.466;2022-12-07T02:14:09;0.20;;;0.20;;
10096;SDS011;5087;42.662;23.466;2022-12-07T02:16:41;0.00;;;0.00;;
10096;SDS011;5087;42.662;23.466;2022-12-07T02:19:32;0.10;;;0.10;;
10096;SDS011;5087;42.662;23.466;2022-12-07T02:22:40;0.00;;;0.00;;
10096;SDS011;5087;42.662;23.466;2022-12-07T02:25:29;0.10;;;0.10;;
10096;SDS011;5087;42.662;23.466;2022-12-07T02:28:09;0.00;;;0.00;;
10096;SDS011;5087;42.662;23.466;2022-12-07T02:30:50;0.63;;;0.63;;
10096;SDS011;5087;42.662;23.466;2022-12-07T02:33:22;0.00;;;0.00;;
10096;SDS011;5087;42.662;23.466;2022-12-07T02:35:55;0.40;;;0.40;;
10096;SDS011;5087;42.662;23.466;2022-12-07T02:38:29;0.30;;;0.30;;
10096;SDS011;5087;42.662;23.466;2022-12-07T02:41:02;0.10;;;0.10;;
10096;SDS011;5087;42.662;23.466;2022-12-07T02:43:35;0.10;;;0.10;;
10096;SDS011;5087;42.662;23.466;2022-12-07T02:46:11;0.10;;;0.10;;
10096;SDS011;5087;42.662;23.466;2022-12-07T02:48:43;0.97;;;0.97;;
10096;SDS011;5087;42.662;23.466;2022-12-07T02:51:15;0.00;;;0.00;;
10096;SDS011;5087;42.662;23.466;2022-12-07T02:53:44;0.30;;;0.30;;
10096;SDS011;5087;42.662;23.466;2022-12-07T02:56:13;0.23;;;0.23;;
10096;SDS011;5087;42.662;23.466;2022-12-07T02:58:50;3.40;;;0.77;;
10096;SDS011;5087;42.662;23.466;2022-12-07T03:01:32;0.20;;;0.20;;
10096;SDS011;5087;42.662;23.466;2022-12-07T03:04:08;2.20;;;0.43;;
10096;SDS011;5087;42.662;23.466;2022-12-07T03:06:48;0.00;;;0.00;;
10096;SDS011;5087;42.662;23.466;2022-12-07T03:09:20;0.10;;;0.10;;
10096;SDS011;5087;42.662;23.466;2022-12-07T03:11:52;0.20;;;0.20;;
10096;SDS011;5087;42.662;23.466;2022-12-07T03:14:29;0.47;;;0.47;;
10096;SDS011;5087;42.662;23.466;2022-12-07T03:17:03;0.23;;;0.23;;
10096;SDS011;5087;42.662;23.466;2022-12-07T03:19:35;0.53;;;0.53;;
10096;SDS011;5087;42.662;23.466;2022-12-07T03:22:05;0.00;;;0.00;;
10096;SDS011;5087;42.662;23.466;2022-12-07T03:24:36;0.10;;;0.10;;
10096;SDS011;5087;42.662;23.466;2022-12-07T03:27:09;0.10;;;0.10;;
10096;SDS011;5087;42.662;23.466;2022-12-07T03:29:50;0.00;;;0.00;;
10096;SDS011;5087;42.662;23.466;2022-12-07T03:32:26;0.53;;;0.53;;
10096;SDS011;5087;42.662;23.466;2022-12-07T03:34:59;0.00;;;0.00;;
10096;SDS011;5087;42.662;23.466;2022-12-07T03:37:31;0.00;;;0.00;;
10096;SDS011;5087;42.662;23.466;2022-12-07T03:40:06;0.00;;;0.00;;
10096;SDS011;5087;42.662;23.466;2022-12-07T03:42:38;0.00;;;0.00;;
10096;SDS011;5087;42.662;23.466;2022-12-07T03:45:06;0.27;;;0.27;;
10096;SDS011;5087;42.662;23.466;2022-12-07T03:47:37;0.00;;;0.00;;
10096;SDS011;5087;42.662;23.466;2022-12-07T03:50:17;0.20;;;0.20;;
10096;SDS011;5087;42.662;23.466;2022-12-07T03:52:53;0.17;;;0.17;;
10096;SDS011;5087;42.662;23.466;2022-12-07T03:55:25;1.20;;;1.20;;
10096;SDS011;5087;42.662;23.466;2022-12-07T03:57:56;0.83;;;0.83;;
10096;SDS011;5087;42.662;23.466;2022-12-07T04:00:26;0.30;;;0.30;;
10096;SDS011;5087;42.662;23.466;2022-12-07T04:02:55;0.20;;;0.20;;
10096;SDS011;5087;42.662;23.466;2022-12-07T04:05:23;0.00;;;0.00;;
10096;SDS011;5087;42.662;23.466;2022-12-07T04:07:50;0.00;;;0.00;;
10096;SDS011;5087;42.662;23.466;2022-12-07T04:10:18;0.00;;;0.00;;
10096;SDS011;5087;42.662;23.466;2022-12-07T04:12:45;0.10;;;0.10;;
10096;SDS011;5087;42.662;23.466;2022-12-07T04:15:13;0.00;;;0.00;;
10096;SDS011;5087;42.662;23.466;2022-12-07T04:17:40;0.20;;;0.20;;
10096;SDS011;5087;42.662;23.466;2022-12-07T04:20:13;0.00;;;0.00;;
10096;SDS011;5087;42.662;23.466;2022-12-07T04:22:41;0.00;;;0.00;;
10096;SDS011;5087;42.662;23.466;2022-12-07T04:25:08;0.00;;;0.00;;
10096;SDS011;5087;42.662;23.466;2022-12-07T04:27:35;0.00;;;0.00;;
10096;SDS011;5087;42.662;23.466;2022-12-07T04:30:03;0.00;;;0.00;;
10096;SDS011;5087;42.662;23.466;2022-12-07T04:34:58;0.00;;;0.00;;
10096;SDS011;5087;42.662;23.466;2022-12-07T04:37:28;0.00;;;0.00;;
10096;SDS011;5087;42.662;23.466;2022-12-07T04:39:55;0.10;;;0.10;;
10096;SDS011;5087;42.662;23.466;2022-12-07T04:42:22;0.00;;;0.00;;
10096;SDS011;5087;42.662;23.466;2022-12-07T04:44:49;0.00;;;0.00;;
10096;SDS011;5087;42.662;23.466;2022-12-07T04:47:17;0.43;;;0.43;;
10096;SDS011;5087;42.662;23.466;2022-12-07T04:49:44;0.00;;;0.00;;
10096;SDS011;5087;42.662;23.466;2022-12-07T04:52:11;0.00;;;0.00;;
10096;SDS011;5087;42.662;23.466;2022-12-07T04:54:40;0.10;;;0.10;;
10096;SDS011;5087;42.662;23.466;2022-12-07T04:57:07;0.10;;;0.10;;
10096;SDS011;5087;42.662;23.466;2022-12-07T04:59:35;0.07;;;0.07;;
10096;SDS011;5087;42.662;23.466;2022-12-07T05:02:02;1.17;;;1.03;;
10096;SDS011;5087;42.662;23.466;2022-12-07T05:04:29;0.10;;;0.10;;
10096;SDS011;5087;42.662;23.466;2022-12-07T05:07:04;0.10;;;0.10;;
10096;SDS011;5087;42.662;23.466;2022-12-07T05:09:45;0.10;;;0.10;;
10096;SDS011;5087;42.662;23.466;2022-12-07T05:12:13;0.10;;;0.10;;
10096;SDS011;5087;42.662;23.466;2022-12-07T05:14:44;0.10;;;0.10;;
10096;SDS011;5087;42.662;23.466;2022-12-07T05:17:14;0.10;;;0.10;;
10096;SDS011;5087;42.662;23.466;2022-12-07T05:19:42;0.00;;;0.00;;
10096;SDS011;5087;42.662;23.466;2022-12-07T05:22:09;0.00;;;0.00;;
10096;SDS011;5087;42.662;23.466;2022-12-07T05:24:42;0.43;;;0.43;;
10096;SDS011;5087;42.662;23.466;2022-12-07T05:27:09;0.00;;;0.00;;
10096;SDS011;5087;42.662;23.466;2022-12-07T05:29:41;0.30;;;0.30;;
10096;SDS011;5087;42.662;23.466;2022-12-07T05:32:08;0.10;;;0.10;;
10096;SDS011;5087;42.662;23.466;2022-12-07T05:34:35;0.00;;;0.00;;
10096;SDS011;5087;42.662;23.466;2022-12-07T05:37:04;0.00;;;0.00;;
10096;SDS011;5087;42.662;23.466;2022-12-07T05:39:31;0.00;;;0.00;;
10096;SDS011;5087;42.662;23.466;2022-12-07T05:42:05;0.00;;;0.00;;
10096;SDS011;5087;42.662;23.466;2022-12-07T05:44:43;0.10;;;0.10;;
10096;SDS011;5087;42.662;23.466;2022-12-07T05:47:19;0.20;;;0.20;;
10096;SDS011;5087;42.662;23.466;2022-12-07T05:49:47;0.47;;;0.43;;
10096;SDS011;5087;42.662;23.466;2022-12-07T05:52:15;0.00;;;0.00;;
10096;SDS011;5087;42.662;23.466;2022-12-07T05:54:42;1.30;;;0.40;;
10096;SDS011;5087;42.662;23.466;2022-12-07T05:57:11;0.10;;;0.10;;
10096;SDS011;5087;42.662;23.466;2022-12-07T05:59:38;0.00;;;0.00;;
10096;SDS011;5087;42.662;23.466;2022-12-07T06:02:05;2.10;;;2.00;;
10096;SDS011;5087;42.662;23.466;2022-12-07T06:04:36;1.37;;;0.33;;
10096;SDS011;5087;42.662;23.466;2022-12-07T06:07:05;0.37;;;0.37;;
10096;SDS011;5087;42.662;23.466;2022-12-07T06:09:33;0.00;;;0.00;;
10096;SDS011;5087;42.662;23.466;2022-12-07T06:12:02;0.00;;;0.00;;
10096;SDS011;5087;42.662;23.466;2022-12-07T06:14:51;0.00;;;0.00;;
10096;SDS011;5087;42.662;23.466;2022-12-07T06:17:18;0.00;;;0.00;;
10096;SDS011;5087;42.662;23.466;2022-12-07T06:19:45;0.40;;;0.40;;
10096;SDS011;5087;42.662;23.466;2022-12-07T06:22:19;0.93;;;0.93;;
10096;SDS011;5087;42.662;23.466;2022-12-07T06:24:47;0.20;;;0.20;;
10096;SDS011;5087;42.662;23.466;2022-12-07T06:27:15;0.00;;;0.00;;
10096;SDS011;5087;42.662;23.466;2022-12-07T06:29:42;0.00;;;0.00;;
10096;SDS011;5087;42.662;23.466;2022-12-07T06:32:12;0.23;;;0.23;;
10096;SDS011;5087;42.662;23.466;2022-12-07T06:34:40;0.00;;;0.00;;
10096;SDS011;5087;42.662;23.466;2022-12-07T06:37:08;0.00;;;0.00;;
10096;SDS011;5087;42.662;23.466;2022-12-07T06:39:35;0.10;;;0.10;;
10096;SDS011;5087;42.662;23.466;2022-12-07T06:42:02;1.07;;;0.27;;
10096;SDS011;5087;42.662;23.466;2022-12-07T06:44:30;0.00;;;0.00;;
10096;SDS011;5087;42.662;23.466;2022-12-07T06:46:58;0.63;;;0.63;;
10096;SDS011;5087;42.662;23.466;2022-12-07T06:49:27;0.13;;;0.13;;
10096;SDS011;5087;42.662;23.466;2022-12-07T06:51:55;0.20;;;0.20;;
10096;SDS011;5087;42.662;23.466;2022-12-07T06:54:39;1.20;;;0.67;;
10096;SDS011;5087;42.662;23.466;2022-12-07T06:57:07;0.00;;;0.00;;
10096;SDS011;5087;42.662;23.466;2022-12-07T06:59:35;0.07;;;0.07;;
10096;SDS011;5087;42.662;23.466;2022-12-07T07:02:09;0.07;;;0.07;;
10096;SDS011;5087;42.662;23.466;2022-12-07T07:04:38;0.10;;;0.10;;
10096;SDS011;5087;42.662;23.466;2022-12-07T07:07:05;0.00;;;0.00;;
10096;SDS011;5087;42.662;23.466;2022-12-07T07:09:35;0.43;;;0.43;;
10096;SDS011;5087;42.662;23.466;2022-12-07T07:12:02;2.17;;;0.77;;
10096;SDS011;5087;42.662;23.466;2022-12-07T07:14:32;0.00;;;0.00;;
10096;SDS011;5087;42.662;23.466;2022-12-07T07:17:02;0.20;;;0.20;;
10096;SDS011;5087;42.662;23.466;2022-12-07T07:19:29;4.33;;;1.37;;
10096;SDS011;5087;42.662;23.466;2022-12-07T07:21:59;1.40;;;1.30;;
10096;SDS011;5087;42.662;23.466;2022-12-07T07:24:26;0.10;;;0.10;;
10096;SDS011;5087;42.662;23.466;2022-12-07T07:26:54;1.83;;;0.87;;
10096;SDS011;5087;42.662;23.466;2022-12-07T07:29:21;0.20;;;0.20;;
10096;SDS011;5087;42.662;23.466;2022-12-07T07:31:50;0.00;;;0.00;;
10096;SDS011;5087;42.662;23.466;2022-12-07T07:34:18;1.30;;;0.87;;
10096;SDS011;5087;42.662;23.466;2022-12-07T07:36:45;0.00;;;0.00;;
10096;SDS011;5087;42.662;23.466;2022-12-07T07:39:17;0.00;;;0.00;;
10096;SDS011;5087;42.662;23.466;2022-12-07T07:41:45;0.13;;;0.13;;
10096;SDS011;5087;42.662;23.466;2022-12-07T07:44:22;0.93;;;0.93;;
10096;SDS011;5087;42.662;23.466;2022-12-07T07:46:50;1.03;;;0.30;;
10096;SDS011;5087;42.662;23.466;2022-12-07T07:49:17;0.00;;;0.00;;
10096;SDS011;5087;42.662;23.466;2022-12-07T07:51:46;0.53;;;0.53;;
10096;SDS011;5087;42.662;23.466;2022-12-07T07:54:14;0.00;;;0.00;;
10096;SDS011;5087;42.662;23.466;2022-12-07T07:56:43;0.00;;;0.00;;
10096;SDS011;5087;42.662;23.466;2022-12-07T07:59:11;0.10;;;0.10;;
10096;SDS011;5087;42.662;23.466;2022-12-07T08:01:38;0.00;;;0.00;;
10096;SDS011;5087;42.662;23.466;2022-12-07T08:04:06;0.77;;;0.60;;
10096;SDS011;5087;42.662;23.466;2022-12-07T08:06:33;0.00;;;0.00;;
10096;SDS011;5087;42.662;23.466;2022-12-07T08:09:01;0.00;;;0.00;;
10096;SDS011;5087;42.662;23.466;2022-12-07T08:11:31;0.33;;;0.33;;
10096;SDS011;5087;42.662;23.466;2022-12-07T08:13:59;0.27;;;0.27;;
10096;SDS011;5087;42.662;23.466;2022-12-07T08:16:27;0.10;;;0.10;;
10096;SDS011;5087;42.662;23.466;2022-12-07T08:18:54;0.40;;;0.40;;
10096;SDS011;5087;42.662;23.466;2022-12-07T08:21:22;0.10;;;0.10;;
10096;SDS011;5087;42.662;23.466;2022-12-07T08:23:49;0.10;;;0.10;;
10096;SDS011;5087;42.662;23.466;2022-12-07T08:26:16;0.30;;;0.30;;
10096;SDS011;5087;42.662;23.466;2022-12-07T08:28:54;1.30;;;1.30;;
10096;SDS011;5087;42.662;23.466;2022-12-07T08:31:23;0.57;;;0.57;;
10096;SDS011;5087;42.662;23.466;2022-12-07T08:33:50;0.47;;;0.47;;
10096;SDS011;5087;42.662;23.466;2022-12-07T08:36:18;0.73;;;0.73;;
10096;SDS011;5087;42.662;23.466;2022-12-07T08:38:47;0.60;;;0.60;;
10096;SDS011;5087;42.662;23.466;2022-12-07T08:41:14;1.37;;;1.37;;
10096;SDS011;5087;42.662;23.466;2022-12-07T08:43:43;1.00;;;1.00;;
10096;SDS011;5087;42.662;23.466;2022-12-07T08:46:11;1.20;;;1.20;;
10096;SDS011;5087;42.662;23.466;2022-12-07T08:48:48;1.50;;;1.50;;
10096;SDS011;5087;42.662;23.466;2022-12-07T08:51:19;1.50;;;1.50;;
10096;SDS011;5087;42.662;23.466;2022-12-07T08:53:48;1.90;;;1.90;;
10096;SDS011;5087;42.662;23.466;2022-12-07T08:56:16;2.20;;;2.20;;
10096;SDS011;5087;42.662;23.466;2022-12-07T08:58:44;2.50;;;2.50;;
10096;SDS011;5087;42.662;23.466;2022-12-07T09:01:16;2.60;;;2.60;;
10096;SDS011;5087;42.662;23.466;2022-12-07T09:03:44;5.30;;;5.00;;
10096;SDS011;5087;42.662;23.466;2022-12-07T09:06:12;3.80;;;3.80;;
10096;SDS011;5087;42.662;23.466;2022-12-07T09:08:43;4.50;;;4.40;;
10096;SDS011;5087;42.662;23.466;2022-12-07T09:11:14;4.80;;;4.70;;
10096;SDS011;5087;42.662;23.466;2022-12-07T09:13:44;4.33;;;4.23;;
10096;SDS011;5087;42.662;23.466;2022-12-07T09:16:12;3.60;;;3.60;;
10096;SDS011;5087;42.662;23.466;2022-12-07T09:18:40;3.20;;;3.20;;
10096;SDS011;5087;42.662;23.466;2022-12-07T09:21:10;3.00;;;3.00;;
10096;SDS011;5087;42.662;23.466;2022-12-07T09:23:41;3.07;;;3.07;;
10096;SDS011;5087;42.662;23.466;2022-12-07T09:26:08;2.77;;;2.77;;
10096;SDS011;5087;42.662;23.466;2022-12-07T09:28:36;2.47;;;2.47;;
10096;SDS011;5087;42.662;23.466;2022-12-07T09:31:04;2.60;;;2.60;;
10096;SDS011;5087;42.662;23.466;2022-12-07T09:33:32;2.70;;;2.70;;
10096;SDS011;5087;42.662;23.466;2022-12-07T09:35:59;2.77;;;2.77;;
10096;SDS011;5087;42.662;23.466;2022-12-07T09:38:27;2.70;;;2.70;;
10096;SDS011;5087;42.662;23.466;2022-12-07T09:40:58;3.10;;;3.10;;
10096;SDS011;5087;42.662;23.466;2022-12-07T09:43:33;2.80;;;2.80;;
10096;SDS011;5087;42.662;23.466;2022-12-07T09:46:02;3.10;;;3.10;;
10096;SDS011;5087;42.662;23.466;2022-12-07T09:48:31;2.70;;;2.60;;
10096;SDS011;5087;42.662;23.466;2022-12-07T09:51:02;2.50;;;2.50;;
10096;SDS011;5087;42.662;23.466;2022-12-07T09:53:37;3.30;;;3.30;;
10096;SDS011;5087;42.662;23.466;2022-12-07T09:56:08;2.40;;;2.40;;
10096;SDS011;5087;42.662;23.466;2022-12-07T09:58:39;2.40;;;2.40;;
10096;SDS011;5087;42.662;23.466;2022-12-07T10:01:09;2.60;;;2.60;;
10096;SDS011;5087;42.662;23.466;2022-12-07T10:03:40;2.13;;;2.13;;
10096;SDS011;5087;42.662;23.466;2022-12-07T10:06:17;2.20;;;2.20;;
10096;SDS011;5087;42.662;23.466;2022-12-07T10:08:45;3.27;;;3.03;;
10096;SDS011;5087;42.662;23.466;2022-12-07T10:11:16;2.40;;;2.40;;
10096;SDS011;5087;42.662;23.466;2022-12-07T10:13:44;1.90;;;1.90;;
10096;SDS011;5087;42.662;23.466;2022-12-07T10:19:19;2.10;;;2.10;;
10096;SDS011;5087;42.662;23.466;2022-12-07T10:22:00;2.30;;;2.30;;
10096;SDS011;5087;42.662;23.466;2022-12-07T10:24:30;2.30;;;2.30;;
10096;SDS011;5087;42.662;23.466;2022-12-07T10:27:02;2.20;;;2.20;;
10096;SDS011;5087;42.662;23.466;2022-12-07T10:29:30;2.60;;;2.60;;
10096;SDS011;5087;42.662;23.466;2022-12-07T10:31:59;2.30;;;2.30;;
10096;SDS011;5087;42.662;23.466;2022-12-07T10:34:28;2.33;;;2.33;;
10096;SDS011;5087;42.662;23.466;2022-12-07T10:37:13;2.20;;;2.20;;
10096;SDS011;5087;42.662;23.466;2022-12-07T10:39:44;2.07;;;2.07;;
10096;SDS011;5087;42.662;23.466;2022-12-07T10:42:17;2.13;;;2.13;;
10096;SDS011;5087;42.662;23.466;2022-12-07T10:44:46;1.93;;;1.93;;
10096;SDS011;5087;42.662;23.466;2022-12-07T10:47:20;2.00;;;2.00;;
10096;SDS011;5087;42.662;23.466;2022-12-07T10:56:21;2.17;;;2.17;;
10096;SDS011;5087;42.662;23.466;2022-12-07T10:59:07;2.30;;;2.30;;
10096;SDS011;5087;42.662;23.466;2022-12-07T11:01:50;2.00;;;2.00;;
10096;SDS011;5087;42.662;23.466;2022-12-07T11:04:24;2.20;;;2.20;;
10096;SDS011;5087;42.662;23.466;2022-12-07T11:07:04;2.30;;;2.30;;
10096;SDS011;5087;42.662;23.466;2022-12-07T11:09:42;2.20;;;2.20;;
10096;SDS011;5087;42.662;23.466;2022-12-07T11:12:25;2.20;;;2.20;;
10096;SDS011;5087;42.662;23.466;2022-12-07T11:15:11;2.40;;;2.40;;
10096;SDS011;5087;42.662;23.466;2022-12-07T11:17:45;2.37;;;2.37;;
10096;SDS011;5087;42.662;23.466;2022-12-07T11:20:26;4.03;;;3.10;;
10096;SDS011;5087;42.662;23.466;2022-12-07T11:23:04;2.20;;;2.20;;
10096;SDS011;5087;42.662;23.466;2022-12-07T11:25:46;2.30;;;2.30;;
10096;SDS011;5087;42.662;23.466;2022-12-07T11:28:24;2.40;;;2.40;;
10096;SDS011;5087;42.662;23.466;2022-12-07T11:31:03;2.40;;;2.40;;
10096;SDS011;5087;42.662;23.466;2022-12-07T11:33:41;2.50;;;2.50;;
10096;SDS011;5087;42.662;23.466;2022-12-07T11:36:20;2.43;;;2.43;;
10096;SDS011;5087;42.662;23.466;2022-12-07T11:39:02;3.03;;;2.90;;
10096;SDS011;5087;42.662;23.466;2022-12-07T11:41:36;2.50;;;2.50;;
10096;SDS011;5087;42.662;23.466;2022-12-07T11:44:22;2.30;;;2.30;;
10096;SDS011;5087;42.662;23.466;2022-12-07T11:47:06;2.40;;;2.40;;
10096;SDS011;5087;42.662;23.466;2022-12-07T11:49:43;2.33;;;2.33;;
10096;SDS011;5087;42.662;23.466;2022-12-07T11:52:20;2.47;;;2.47;;
10096;SDS011;5087;42.662;23.466;2022-12-07T11:54:54;2.50;;;2.50;;
10096;SDS011;5087;42.662;23.466;2022-12-07T11:57:27;2.53;;;2.53;;
10096;SDS011;5087;42.662;23.466;2022-12-07T12:00:01;2.70;;;2.70;;
10096;SDS011;5087;42.662;23.466;2022-12-07T12:02:45;3.67;;;3.57;;
10096;SDS011;5087;42.662;23.466;2022-12-07T12:05:19;2.40;;;2.40;;
10096;SDS011;5087;42.662;23.466;2022-12-07T12:07:59;2.80;;;2.80;;
10096;SDS011;5087;42.662;23.466;2022-12-07T12:10:38;2.33;;;2.33;;
10096;SDS011;5087;42.662;23.466;2022-12-07T12:13:22;2.57;;;2.57;;
10096;SDS011;5087;42.662;23.466;2022-12-07T12:16:21;2.40;;;2.40;;
10096;SDS011;5087;42.662;23.466;2022-12-07T12:19:14;2.50;;;2.50;;
10096;SDS011;5087;42.662;23.466;2022-12-07T12:21:49;2.00;;;2.00;;
10096;SDS011;5087;42.662;23.466;2022-12-07T12:24:25;1.90;;;1.90;;
10096;SDS011;5087;42.662;23.466;2022-12-07T12:26:56;1.90;;;1.90;;
10096;SDS011;5087;42.662;23.466;2022-12-07T12:29:31;1.90;;;1.90;;
10096;SDS011;5087;42.662;23.466;2022-12-07T12:32:06;1.93;;;1.93;;
10096;SDS011;5087;42.662;23.466;2022-12-07T12:34:57;1.70;;;1.70;;
10096;SDS011;5087;42.662;23.466;2022-12-07T12:37:43;2.20;;;2.20;;
10096;SDS011;5087;42.662;23.466;2022-12-07T12:49:14;2.20;;;2.20;;
10096;SDS011;5087;42.662;23.466;2022-12-07T12:52:00;1.70;;;1.70;;
10096;SDS011;5087;42.662;23.466;2022-12-07T12:54:57;1.80;;;1.80;;
10096;SDS011;5087;42.662;23.466;2022-12-07T12:57:28;1.70;;;1.70;;
10096;SDS011;5087;42.662;23.466;2022-12-07T12:59:57;2.00;;;2.00;;
10096;SDS011;5087;42.662;23.466;2022-12-07T13:02:26;1.70;;;1.70;;
10096;SDS011;5087;42.662;23.466;2022-12-07T13:04:55;1.70;;;1.70;;
10096;SDS011;5087;42.662;23.466;2022-12-07T13:10:36;2.00;;;2.00;;
10096;SDS011;5087;42.662;23.466;2022-12-07T13:13:28;2.40;;;2.40;;
10096;SDS011;5087;42.662;23.466;2022-12-07T13:25:34;2.30;;;2.30;;
10096;SDS011;5087;42.662;23.466;2022-12-07T13:28:10;2.73;;;2.73;;
10096;SDS011;5087;42.662;23.466;2022-12-07T13:33:43;2.10;;;2.10;;
10096;SDS011;5087;42.662;23.466;2022-12-07T13:36:14;2.40;;;2.40;;
10096;SDS011;5087;42.662;23.466;2022-12-07T13:41:54;1.80;;;1.80;;
10096;SDS011;5087;42.662;23.466;2022-12-07T13:44:33;2.10;;;2.10;;
10096;SDS011;5087;42.662;23.466;2022-12-07T13:47:04;2.80;;;2.80;;
10096;SDS011;5087;42.662;23.466;2022-12-07T13:49:37;2.20;;;2.20;;
10096;SDS011;5087;42.662;23.466;2022-12-07T13:52:16;2.00;;;2.00;;
10096;SDS011;5087;42.662;23.466;2022-12-07T13:54:47;1.97;;;1.97;;
10096;SDS011;5087;42.662;23.466;2022-12-07T13:57:22;2.40;;;2.40;;
10096;SDS011;5087;42.662;23.466;2022-12-07T13:59:54;2.60;;;2.60;;
10096;SDS011;5087;42.662;23.466;2022-12-07T14:02:24;2.10;;;2.10;;
10096;SDS011;5087;42.662;23.466;2022-12-07T14:05:05;2.10;;;2.10;;
10096;SDS011;5087;42.662;23.466;2022-12-07T14:07:35;2.10;;;2.10;;
10096;SDS011;5087;42.662;23.466;2022-12-07T14:12:54;2.20;;;2.20;;
10096;SDS011;5087;42.662;23.466;2022-12-07T14:15:22;2.63;;;2.50;;
10096;SDS011;5087;42.662;23.466;2022-12-07T14:17:54;2.40;;;2.40;;
10096;SDS011;5087;42.662;23.466;2022-12-07T14:20:29;2.40;;;2.40;;
10096;SDS011;5087;42.662;23.466;2022-12-07T14:23:02;2.43;;;2.43;;
10096;SDS011;5087;42.662;23.466;2022-12-07T14:25:45;2.20;;;2.20;;
10096;SDS011;5087;42.662;23.466;2022-12-07T14:28:25;2.50;;;2.50;;
10096;SDS011;5087;42.662;23.466;2022-12-07T14:30:53;2.10;;;2.10;;
10096;SDS011;5087;42.662;23.466;2022-12-07T14:33:21;2.20;;;2.20;;
10096;SDS011;5087;42.662;23.466;2022-12-07T14:35:50;2.07;;;2.07;;
10096;SDS011;5087;42.662;23.466;2022-12-07T14:38:20;2.10;;;2.10;;
10096;SDS011;5087;42.662;23.466;2022-12-07T14:40:51;2.40;;;2.40;;
10096;SDS011;5087;42.662;23.466;2022-12-07T14:43:50;2.60;;;2.60;;
10096;SDS011;5087;42.662;23.466;2022-12-07T14:46:20;2.40;;;2.40;;
10096;SDS011;5087;42.662;23.466;2022-12-07T14:48:47;2.37;;;2.37;;
10096;SDS011;5087;42.662;23.466;2022-12-07T14:51:22;2.10;;;2.10;;
10096;SDS011;5087;42.662;23.466;2022-12-07T14:53:50;2.00;;;2.00;;
10096;SDS011;5087;42.662;23.466;2022-12-07T14:56:21;1.90;;;1.90;;
10096;SDS011;5087;42.662;23.466;2022-12-07T14:58:53;1.90;;;1.90;;
10096;SDS011;5087;42.662;23.466;2022-12-07T15:01:20;1.70;;;1.70;;
10096;SDS011;5087;42.662;23.466;2022-12-07T15:03:48;2.10;;;2.00;;
10096;SDS011;5087;42.662;23.466;2022-12-07T15:06:22;1.93;;;1.87;;
10096;SDS011;5087;42.662;23.466;2022-12-07T15:08:49;2.07;;;2.07;;
10096;SDS011;5087;42.662;23.466;2022-12-07T15:11:17;2.00;;;2.00;;
10096;SDS011;5087;42.662;23.466;2022-12-07T15:13:47;1.83;;;1.83;;
10096;SDS011;5087;42.662;23.466;2022-12-07T15:16:35;1.50;;;1.50;;
10096;SDS011;5087;42.662;23.466;2022-12-07T15:19:07;1.60;;;1.60;;
10096;SDS011;5087;42.662;23.466;2022-12-07T15:21:41;1.57;;;1.57;;
10096;SDS011;5087;42.662;23.466;2022-12-07T15:24:09;1.30;;;1.30;;
10096;SDS011;5087;42.662;23.466;2022-12-07T15:26:37;1.20;;;1.20;;
10096;SDS011;5087;42.662;23.466;2022-12-07T15:29:08;1.30;;;1.30;;
10096;SDS011;5087;42.662;23.466;2022-12-07T15:31:37;1.00;;;1.00;;
10096;SDS011;5087;42.662;23.466;2022-12-07T15:34:07;0.90;;;0.90;;
10096;SDS011;5087;42.662;23.466;2022-12-07T15:36:34;1.00;;;1.00;;
10096;SDS011;5087;42.662;23.466;2022-12-07T15:39:04;1.07;;;1.07;;
10096;SDS011;5087;42.662;23.466;2022-12-07T15:41:34;1.20;;;1.20;;
10096;SDS011;5087;42.662;23.466;2022-12-07T15:44:01;2.27;;;2.13;;
10096;SDS011;5087;42.662;23.466;2022-12-07T15:46:48;1.33;;;1.33;;
10096;SDS011;5087;42.662;23.466;2022-12-07T15:49:16;1.90;;;1.90;;
10096;SDS011;5087;42.662;23.466;2022-12-07T15:51:44;1.23;;;1.23;;
10096;SDS011;5087;42.662;23.466;2022-12-07T15:54:13;1.33;;;1.33;;
10096;SDS011;5087;42.662;23.466;2022-12-07T15:56:47;0.70;;;0.70;;